Terminal Aerodrome Forecast
Issued by NWS

Home | Current Version | Previous Version | Text Only | Print | Product List | Glossary Off
Versions: 1 2 3 4 5 6 7 8 9 10 11 12 13 14 15 16 17 18 19 20

000
FTUS43 KIWX 231123
TAFSBN
TAF
KSBN 231123Z 2312/2412 25008KT 3SM BR SCT015
      TEMPO 2312/2313 1/2SM FG VV005
     FM231400 35008KT P6SM SCT020 BKN250
     FM232300 04008KT P6SM VCSH SCT040 OVC080
     FM240300 08010KT 3SM -SHRA BR OVC020
     FM240600 10010KT 2SM -SHRA BR OVC010 WS020/20040KT PROB30
      2409/2412 1SM TSRA BR OVC006CB=

USA.gov is the U.S. government's official web portal to all federal, state and local government web resources and services.